createdAt,value
2017-09-19T00:00:41.944Z,0
2017-09-19T00:01:43.669Z,0
2017-09-19T00:02:46.887Z,0
2017-09-19T00:03:49.430Z,0
2017-09-19T00:04:52.976Z,0
2017-09-19T00:05:55.568Z,0
2017-09-19T00:06:58.466Z,0
2017-09-19T00:08:01.132Z,0
2017-09-19T00:09:03.447Z,0
2017-09-19T00:10:08.948Z,0
2017-09-19T00:11:12.580Z,0
2017-09-19T00:12:14.288Z,0
2017-09-19T00:13:16.011Z,0
2017-09-19T00:14:19.443Z,0
2017-09-19T00:15:22.626Z,0
2017-09-19T00:16:25.739Z,0
2017-09-19T00:17:29.038Z,0
2017-09-19T00:18:32.070Z,0
2017-09-19T00:19:33.842Z,0
2017-09-19T00:20:39.019Z,0
2017-09-19T00:21:43.539Z,0
2017-09-19T00:22:47.048Z,0
2017-09-19T00:23:48.761Z,0
2017-09-19T00:24:50.464Z,0
2017-09-19T00:25:53.927Z,0
2017-09-19T00:26:57.103Z,0
2017-09-19T00:27:59.471Z,0
2017-09-19T00:29:02.511Z,0
2017-09-19T00:30:05.954Z,0
2017-09-19T00:31:09.188Z,0
2017-09-19T00:32:12.902Z,0
2017-09-19T00:33:15.270Z,0
2017-09-19T00:34:18.455Z,0
2017-09-19T00:35:20.880Z,0
2017-09-19T00:36:23.450Z,0
2017-09-19T00:37:29.032Z,0
2017-09-19T00:38:31.890Z,0
2017-09-19T00:39:33.502Z,0
2017-09-19T00:40:35.813Z,0
2017-09-19T00:41:38.671Z,0
2017-09-19T00:42:41.128Z,0
2017-09-19T00:43:43.303Z,0
2017-09-19T00:44:45.034Z,0
2017-09-19T00:45:48.385Z,0
2017-09-19T00:46:50.886Z,0
2017-09-19T00:47:52.393Z,0
2017-09-19T00:48:55.929Z,0
2017-09-19T00:49:59.628Z,0
2017-09-19T00:51:05.020Z,0
2017-09-19T00:52:06.714Z,0
2017-09-19T00:53:10.414Z,0
2017-09-19T00:54:13.563Z,0
2017-09-19T00:55:16.753Z,0
2017-09-19T00:56:19.335Z,0
2017-09-19T00:57:21.834Z,0
2017-09-19T00:58:25.436Z,0
2017-09-19T00:59:28.772Z,0
2017-09-19T01:00:31.770Z,0
2017-09-19T01:01:35.597Z,0
2017-09-19T01:02:37.866Z,0
2017-09-19T01:03:41.275Z,0
2017-09-19T01:04:43.658Z,0
2017-09-19T01:05:45.395Z,0
2017-09-19T01:06:47.714Z,0
2017-09-19T01:07:50.800Z,0
2017-09-19T01:08:52.680Z,0
2017-09-19T01:09:54.979Z,0
2017-09-19T01:10:58.049Z,0
2017-09-19T01:12:00.581Z,0
2017-09-19T01:13:03.292Z,0
2017-09-19T01:14:05.719Z,0
2017-09-19T01:15:08.885Z,0
2017-09-19T01:16:09.748Z,0
2017-09-19T01:17:13.516Z,0
2017-09-19T01:18:16.222Z,0
2017-09-19T01:19:20.289Z,0
2017-09-19T01:20:23.930Z,0
2017-09-19T01:21:26.230Z,0
2017-09-19T01:22:29.163Z,0
2017-09-19T01:23:34.862Z,0
2017-09-19T01:24:36.890Z,0
2017-09-19T01:25:39.591Z,0
2017-09-19T01:26:41.546Z,0
2017-09-19T01:27:44.711Z,0
2017-09-19T01:28:46.804Z,0
2017-09-19T01:29:49.391Z,0
2017-09-19T01:30:52.405Z,0
2017-09-19T01:31:57.009Z,0
2017-09-19T01:33:00.462Z,0
2017-09-19T01:34:02.467Z,0
2017-09-19T01:35:06.478Z,0
2017-09-19T01:36:08.414Z,0
2017-09-19T01:37:10.545Z,0
2017-09-19T01:38:14.008Z,0
2017-09-19T01:39:17.590Z,0
2017-09-19T01:40:19.613Z,0
2017-09-19T01:41:22.984Z,0
2017-09-19T01:42:27.199Z,0
2017-09-19T01:43:30.895Z,0
2017-09-19T01:44:32.329Z,0
2017-09-19T01:45:36.213Z,0
2017-09-19T01:46:39.713Z,0
2017-09-19T01:47:43.003Z,0
2017-09-19T01:48:47.502Z,0
2017-09-19T01:49:49.885Z,0
2017-09-19T01:50:52.438Z,0
2017-09-19T01:51:54.181Z,0
2017-09-19T01:52:57.890Z,0
2017-09-19T01:53:59.766Z,0
2017-09-19T01:55:02.225Z,0
2017-09-19T02:01:01.930Z,0
2017-09-19T02:02:05.289Z,0
2017-09-19T02:03:07.698Z,0
2017-09-19T02:04:10.073Z,0
2017-09-19T02:05:15.663Z,0
2017-09-19T02:06:19.983Z,0
2017-09-19T02:07:24.787Z,0
2017-09-19T02:08:27.391Z,0
2017-09-19T02:09:31.675Z,0
2017-09-19T02:10:33.334Z,0
2017-09-19T02:11:37.652Z,0
2017-09-19T02:12:40.392Z,0
2017-09-19T02:13:44.263Z,0
2017-09-19T02:14:49.128Z,0
2017-09-19T02:15:53.160Z,0
2017-09-19T02:16:57.567Z,0
2017-09-19T02:18:00.630Z,0
2017-09-19T02:19:03.259Z,0
2017-09-19T02:20:06.301Z,0
2017-09-19T02:21:07.958Z,0
2017-09-19T02:22:11.057Z,0
2017-09-19T02:23:12.612Z,0
2017-09-19T02:24:15.844Z,0
2017-09-19T02:25:18.796Z,0
2017-09-19T02:26:22.075Z,0
2017-09-19T02:27:24.650Z,0
2017-09-19T02:28:27.790Z,0
2017-09-19T02:29:32.057Z,0
2017-09-19T02:30:35.057Z,0
2017-09-19T02:31:36.744Z,0
2017-09-19T02:32:38.393Z,0
2017-09-19T02:33:43.627Z,0
2017-09-19T02:34:45.276Z,0
2017-09-19T02:35:48.557Z,0
2017-09-19T02:36:52.397Z,0
2017-09-19T02:37:54.047Z,0
2017-09-19T02:38:55.711Z,0
2017-09-19T02:39:58.638Z,0
2017-09-19T02:41:01.870Z,0
2017-09-19T02:42:05.057Z,0
2017-09-19T02:43:07.308Z,0
2017-09-19T02:44:09.836Z,0
2017-09-19T02:45:12.228Z,0
2017-09-19T02:46:16.142Z,0
2017-09-19T02:47:19.266Z,0
2017-09-19T02:48:21.707Z,0
2017-09-19T02:49:26.498Z,0
2017-09-19T02:50:28.644Z,0
2017-09-19T02:51:32.205Z,0
2017-09-19T02:52:36.184Z,0
2017-09-19T02:53:40.322Z,0
2017-09-19T02:54:45.237Z,0
2017-09-19T02:55:47.445Z,0
2017-09-19T02:56:50.384Z,0
2017-09-19T02:57:52.759Z,0
2017-09-19T02:58:55.879Z,0
2017-09-19T03:00:00.055Z,0
2017-09-19T03:01:02.558Z,0
2017-09-19T03:02:06.330Z,0
2017-09-19T03:03:09.490Z,0
2017-09-19T03:04:12.448Z,0
2017-09-19T03:05:15.576Z,0
2017-09-19T03:06:20.175Z,0
2017-09-19T03:07:23.644Z,0
2017-09-19T03:08:27.669Z,0
2017-09-19T03:09:29.323Z,0
2017-09-19T03:10:31.941Z,0
2017-09-19T03:11:34.777Z,0
2017-09-19T03:12:37.790Z,0
2017-09-19T03:13:40.924Z,0
2017-09-19T03:14:44.926Z,0
2017-09-19T03:15:47.089Z,0
2017-09-19T03:16:50.283Z,0
2017-09-19T03:17:53.341Z,0
2017-09-19T03:18:56.331Z,0
2017-09-19T03:19:59.692Z,0
2017-09-19T03:21:02.991Z,0
2017-09-19T03:22:06.909Z,0
2017-09-19T03:23:09.683Z,0
2017-09-19T03:24:14.094Z,0
2017-09-19T03:25:18.033Z,0
2017-09-19T03:26:21.342Z,0
2017-09-19T03:27:24.182Z,0
2017-09-19T03:28:28.181Z,0
2017-09-19T03:29:31.256Z,0
2017-09-19T03:30:33.837Z,0
2017-09-19T03:31:36.172Z,0
2017-09-19T03:32:40.215Z,0
2017-09-19T03:33:43.109Z,0
2017-09-19T03:34:48.804Z,0
2017-09-19T03:35:50.458Z,0
2017-09-19T03:36:54.480Z,0
2017-09-19T03:37:56.132Z,0
2017-09-19T03:38:59.255Z,0
2017-09-19T03:40:03.065Z,0
2017-09-19T03:41:04.548Z,0
2017-09-19T03:42:06.816Z,0
2017-09-19T03:43:09.883Z,0
2017-09-19T03:44:13.165Z,0
2017-09-19T03:45:17.898Z,0
2017-09-19T03:46:21.061Z,0
2017-09-19T03:47:24.350Z,0
2017-09-19T03:48:26.062Z,0
2017-09-19T03:49:32.184Z,0
2017-09-19T03:50:34.639Z,0
2017-09-19T03:51:36.346Z,0
2017-09-19T03:52:41.185Z,0
2017-09-19T03:53:44.261Z,0
2017-09-19T03:54:46.806Z,0
2017-09-19T03:55:50.061Z,0
2017-09-19T03:56:53.061Z,0
2017-09-19T03:57:53.956Z,0
2017-09-19T03:58:58.995Z,0
2017-09-19T04:00:04.125Z,0
2017-09-19T04:01:08.562Z,0
2017-09-19T04:02:10.571Z,0
2017-09-19T04:03:12.232Z,0
2017-09-19T04:04:14.956Z,0
2017-09-19T04:05:17.308Z,0
2017-09-19T04:06:20.478Z,0
2017-09-19T04:07:25.066Z,0
2017-09-19T04:08:27.115Z,0
2017-09-19T04:09:30.171Z,0
2017-09-19T04:10:34.829Z,0
2017-09-19T04:11:36.484Z,0
2017-09-19T04:12:40.656Z,0
2017-09-19T04:13:42.921Z,0
2017-09-19T04:14:47.073Z,0
2017-09-19T04:15:49.617Z,0
2017-09-19T04:16:52.167Z,0
2017-09-19T04:17:54.716Z,0
2017-09-19T04:18:58.865Z,0
2017-09-19T04:20:02.873Z,0
2017-09-19T04:21:06.456Z,0
2017-09-19T04:22:09.975Z,0
2017-09-19T04:23:13.604Z,0
2017-09-19T04:24:17.564Z,0
2017-09-19T04:25:19.876Z,0
2017-09-19T04:26:24.256Z,0
2017-09-19T04:27:29.371Z,0
2017-09-19T04:28:31.025Z,0
2017-09-19T04:29:34.202Z,0
2017-09-19T04:30:36.686Z,0
2017-09-19T04:31:39.655Z,0
2017-09-19T04:32:43.504Z,0
2017-09-19T04:33:47.313Z,0
2017-09-19T04:34:50.346Z,0
2017-09-19T04:35:54.065Z,0
2017-09-19T04:36:55.716Z,0
2017-09-19T04:37:58.133Z,0
2017-09-19T04:39:01.315Z,0
2017-09-19T04:40:03.983Z,0
2017-09-19T04:41:06.964Z,0
2017-09-19T04:42:10.224Z,4
2017-09-19T04:43:12.665Z,0
2017-09-19T04:44:17.566Z,4
2017-09-19T04:45:19.920Z,4
2017-09-19T04:46:22.147Z,8
2017-09-19T04:47:27.334Z,8
2017-09-19T04:48:29.865Z,8
2017-09-19T04:49:33.773Z,12
2017-09-19T04:50:36.275Z,12
2017-09-19T04:51:40.224Z,12
2017-09-19T04:52:44.066Z,16
2017-09-19T04:53:45.667Z,16
2017-09-19T04:54:48.831Z,16
2017-09-19T04:55:53.767Z,20
2017-09-19T04:56:57.248Z,28
2017-09-19T04:58:00.811Z,32
2017-09-19T04:59:04.665Z,36
2017-09-19T05:00:07.613Z,40
2017-09-19T05:01:09.822Z,40
2017-09-19T05:02:14.399Z,48
2017-09-19T05:03:16.686Z,56
2017-09-19T05:04:20.737Z,64
2017-09-19T05:05:24.968Z,96
2017-09-19T05:06:30.235Z,136
2017-09-19T05:07:32.972Z,152
2017-09-19T05:08:36.400Z,172
2017-09-19T05:09:39.336Z,184
2017-09-19T05:10:44.567Z,192
2017-09-19T05:11:48.641Z,204
2017-09-19T05:12:51.622Z,224
2017-09-19T05:13:54.367Z,276
2017-09-19T05:14:57.905Z,296
2017-09-19T05:16:03.643Z,296
2017-09-19T05:17:11.571Z,360
2017-09-19T05:18:21.659Z,472
2017-09-19T05:19:30.120Z,560
2017-09-19T05:20:33.691Z,536
2017-09-19T05:21:38.312Z,476
2017-09-19T05:22:40.854Z,468
2017-09-19T05:23:43.340Z,488
2017-09-19T05:24:46.269Z,504
2017-09-19T05:25:50.679Z,504
2017-09-19T05:26:53.819Z,512
2017-09-19T05:27:57.458Z,584
2017-09-19T05:29:00.251Z,628
2017-09-19T05:30:03.400Z,620
2017-09-19T05:31:05.066Z,576
2017-09-19T05:32:07.321Z,608
2017-09-19T05:33:09.685Z,792
2017-09-19T05:34:13.576Z,928
2017-09-19T05:35:15.322Z,860
2017-09-19T05:36:20.484Z,828
2017-09-19T05:37:22.991Z,944
2017-09-19T05:38:26.253Z,928
2017-09-19T05:39:31.336Z,876
2017-09-19T05:40:34.859Z,876
2017-09-19T05:41:38.706Z,904
2017-09-19T05:42:41.196Z,972
2017-09-19T05:43:44.204Z,1184
2017-09-19T05:44:45.867Z,1436
2017-09-19T05:45:50.567Z,1632
2017-09-19T05:46:55.069Z,1868
2017-09-19T05:47:58.216Z,2032
2017-09-19T05:49:01.579Z,1992
2017-09-19T05:50:03.233Z,1752
2017-09-19T05:51:07.170Z,1512
2017-09-19T05:52:11.123Z,1412
2017-09-19T05:53:13.446Z,1480
2017-09-19T05:54:15.905Z,1592
2017-09-19T05:55:19.332Z,1668
2017-09-19T06:01:51.551Z,3220
2017-09-19T06:02:54.557Z,3600
2017-09-19T06:03:57.572Z,3836
2017-09-19T06:05:01.423Z,3928
2017-09-19T06:06:06.262Z,3712
2017-09-19T06:07:08.645Z,3576
2017-09-19T06:08:11.116Z,3484
2017-09-19T06:09:14.166Z,3500
2017-09-19T06:10:16.416Z,3632
2017-09-19T06:11:18.693Z,3980
2017-09-19T06:12:21.622Z,4272
2017-09-19T06:13:24.976Z,4388
2017-09-19T06:14:29.087Z,4580
2017-09-19T06:15:30.751Z,4776
2017-09-19T06:16:35.296Z,4788
2017-09-19T06:17:37.603Z,5076
2017-09-19T06:18:40.008Z,4980
2017-09-19T06:19:44.676Z,4992
2017-09-19T06:20:48.552Z,5272
2017-09-19T06:21:53.130Z,5924
2017-09-19T06:22:56.690Z,6348
2017-09-19T06:24:00.528Z,6208
2017-09-19T06:25:03.106Z,6032
2017-09-19T06:26:06.999Z,5892
2017-09-19T06:27:12.500Z,5716
2017-09-19T06:28:14.629Z,5724
2017-09-19T06:29:16.943Z,5924
2017-09-19T06:30:19.580Z,6044
2017-09-19T06:31:22.148Z,6440
2017-09-19T06:32:26.141Z,6900
2017-09-19T06:33:27.802Z,7172
2017-09-19T06:34:32.567Z,6988
2017-09-19T06:35:35.709Z,6868
2017-09-19T06:36:40.522Z,6476
2017-09-19T06:37:42.811Z,6060
2017-09-19T06:38:45.118Z,5676
2017-09-19T06:39:49.739Z,5352
2017-09-19T06:40:51.404Z,5284
2017-09-19T06:41:54.936Z,5304
2017-09-19T06:42:58.973Z,5224
2017-09-19T06:44:02.215Z,5096
2017-09-19T06:45:05.250Z,5348
2017-09-19T06:46:07.641Z,5776
2017-09-19T06:47:10.746Z,5916
2017-09-19T06:48:14.780Z,6000
2017-09-19T06:49:17.859Z,5832
2017-09-19T06:50:20.749Z,5364
2017-09-19T06:51:23.261Z,5824
2017-09-19T06:52:26.086Z,6872
2017-09-19T06:53:28.443Z,8088
2017-09-19T06:54:30.895Z,8600
2017-09-19T06:55:34.066Z,8116
2017-09-19T06:56:38.504Z,7924
2017-09-19T06:57:40.415Z,7524
2017-09-19T06:58:43.585Z,6968
2017-09-19T06:59:47.338Z,6944
2017-09-19T07:00:50.642Z,7700
2017-09-19T07:01:53.326Z,8668
2017-09-19T07:02:56.736Z,9344
2017-09-19T07:04:00.671Z,10376
2017-09-19T07:05:03.326Z,11216
2017-09-19T07:06:06.183Z,11864
2017-09-19T07:07:09.179Z,13176
2017-09-19T07:08:13.346Z,13584
2017-09-19T07:09:15.600Z,12456
2017-09-19T07:10:17.950Z,10816
2017-09-19T07:11:22.067Z,9832
2017-09-19T07:12:25.092Z,9520
2017-09-19T07:13:28.191Z,9376
2017-09-19T07:14:30.509Z,8924
2017-09-19T07:15:33.008Z,8528
2017-09-19T07:16:35.177Z,8656
2017-09-19T07:17:39.095Z,8944
2017-09-19T07:18:42.804Z,9648
2017-09-19T07:19:46.087Z,10304
2017-09-19T07:20:50.620Z,11132
2017-09-19T07:21:54.012Z,11956
2017-09-19T07:22:56.445Z,11024
2017-09-19T07:24:00.096Z,9956
2017-09-19T07:25:03.477Z,9140
2017-09-19T07:26:07.537Z,8492
2017-09-19T07:27:09.794Z,7736
2017-09-19T07:28:12.915Z,7316
2017-09-19T07:29:15.055Z,7384
2017-09-19T07:30:19.070Z,7764
2017-09-19T07:31:21.339Z,8664
2017-09-19T07:32:23.599Z,9484
2017-09-19T07:33:27.526Z,10352
2017-09-19T07:34:31.274Z,10600
2017-09-19T07:35:33.624Z,9440
2017-09-19T07:36:36.120Z,8364
2017-09-19T07:37:39.016Z,8396
2017-09-19T07:38:39.998Z,9012
2017-09-19T07:39:42.494Z,9784
2017-09-19T07:40:46.270Z,10712
2017-09-19T07:41:47.935Z,12204
2017-09-19T07:42:53.131Z,12848
2017-09-19T07:43:55.302Z,12288
2017-09-19T07:44:58.369Z,11504
2017-09-19T07:46:03.017Z,11360
2017-09-19T07:47:06.563Z,11336
2017-09-19T07:48:10.564Z,10624
2017-09-19T07:49:13.944Z,10160
2017-09-19T07:50:15.607Z,10096
2017-09-19T07:51:17.910Z,10308
2017-09-19T07:52:21.649Z,10252
2017-09-19T07:53:24.910Z,9676
2017-09-19T07:54:27.139Z,8796
2017-09-19T07:55:28.841Z,8204
2017-09-19T07:56:30.606Z,7984
2017-09-19T07:57:32.760Z,7832
2017-09-19T07:58:37.131Z,7496
2017-09-19T07:59:39.544Z,7340
2017-09-19T08:00:41.203Z,7756
2017-09-19T08:01:44.813Z,8940
2017-09-19T08:02:48.329Z,11108
2017-09-19T08:03:52.618Z,14204
2017-09-19T08:04:54.535Z,18272
2017-09-19T08:05:56.959Z,21312
2017-09-19T08:06:59.565Z,21056
2017-09-19T08:08:03.649Z,17600
2017-09-19T08:09:05.319Z,13948
2017-09-19T08:10:07.857Z,12820
2017-09-19T08:11:09.549Z,12316
2017-09-19T08:12:12.644Z,11852
2017-09-19T08:13:16.653Z,11648
2017-09-19T08:14:21.019Z,11220
2017-09-19T08:15:25.570Z,10104
2017-09-19T08:16:28.502Z,9464
2017-09-19T08:17:32.622Z,10256
2017-09-19T08:18:34.304Z,12972
2017-09-19T08:19:38.484Z,15796
2017-09-19T08:20:40.183Z,18336
2017-09-19T08:21:42.761Z,20320
2017-09-19T08:22:46.270Z,21760
2017-09-19T08:23:49.147Z,22304
2017-09-19T08:24:53.018Z,20640
2017-09-19T08:25:54.823Z,18144
2017-09-19T08:26:58.680Z,15392
2017-09-19T08:28:02.172Z,13580
2017-09-19T08:29:05.188Z,12828
2017-09-19T08:30:07.614Z,13196
2017-09-19T08:31:09.318Z,13396
2017-09-19T08:32:12.372Z,12588
2017-09-19T08:33:15.339Z,11108
2017-09-19T08:34:17.864Z,9804
2017-09-19T08:35:22.335Z,8868
2017-09-19T08:36:26.107Z,8156
2017-09-19T08:37:29.309Z,7668
2017-09-19T08:38:32.073Z,7588
2017-09-19T08:39:35.021Z,7676
2017-09-19T08:40:37.628Z,7856
2017-09-19T08:41:40.191Z,8400
2017-09-19T08:42:43.281Z,9168
2017-09-19T08:43:46.319Z,9420
2017-09-19T08:44:49.884Z,9544
2017-09-19T08:45:52.440Z,9540
2017-09-19T08:46:57.115Z,9456
2017-09-19T08:47:58.775Z,9816
2017-09-19T08:49:00.433Z,10464
2017-09-19T08:50:03.216Z,10524
2017-09-19T08:51:08.404Z,10444
2017-09-19T08:52:12.587Z,10568
2017-09-19T08:53:18.070Z,11240
2017-09-19T08:54:23.592Z,12760
2017-09-19T08:55:26.151Z,14912
2017-09-19T08:56:30.517Z,16516
2017-09-19T08:57:34.021Z,16460
2017-09-19T08:58:36.638Z,14768
2017-09-19T08:59:39.222Z,14008
2017-09-19T09:00:42.471Z,13384
2017-09-19T09:01:48.621Z,12812
2017-09-19T09:02:52.971Z,12200
2017-09-19T09:03:55.249Z,11932
2017-09-19T09:04:59.697Z,11820
2017-09-19T09:06:07.736Z,12516
2017-09-19T09:07:12.028Z,12844
2017-09-19T09:08:12.776Z,13964
2017-09-19T09:09:15.203Z,16576
2017-09-19T09:10:17.659Z,19520
2017-09-19T09:11:21.007Z,21696
2017-09-19T09:12:23.293Z,23456
2017-09-19T09:13:27.594Z,24352
2017-09-19T09:14:31.279Z,23168
2017-09-19T09:15:33.407Z,22912
2017-09-19T09:16:35.792Z,22624
2017-09-19T09:17:38.817Z,24288
2017-09-19T09:18:41.259Z,26624
2017-09-19T09:19:43.520Z,26656
2017-09-19T09:20:47.814Z,26656
2017-09-19T09:21:51.486Z,26880
2017-09-19T09:22:54.784Z,26240
2017-09-19T09:23:58.873Z,26304
2017-09-19T09:25:02.000Z,24128
2017-09-19T09:26:05.573Z,21600
2017-09-19T09:27:07.773Z,20640
2017-09-19T09:28:10.110Z,20544
2017-09-19T09:29:14.533Z,20448
2017-09-19T09:30:17.221Z,20928
2017-09-19T09:31:20.713Z,22656
2017-09-19T09:32:24.667Z,24992
2017-09-19T09:33:27.333Z,28896
2017-09-19T09:34:29.570Z,33184
2017-09-19T09:35:32.331Z,40352
2017-09-19T09:36:35.244Z,41920
2017-09-19T09:37:39.104Z,36128
2017-09-19T09:38:40.745Z,27040
2017-09-19T09:39:42.475Z,20768
2017-09-19T09:40:46.573Z,17856
2017-09-19T09:41:48.237Z,16212
2017-09-19T09:42:53.312Z,15628
2017-09-19T09:43:55.493Z,15580
2017-09-19T09:44:57.708Z,15816
2017-09-19T09:46:01.269Z,16408
2017-09-19T09:47:04.447Z,16848
2017-09-19T09:48:06.182Z,17408
2017-09-19T09:49:09.596Z,17728
2017-09-19T09:50:11.381Z,18656
2017-09-19T09:51:14.530Z,19904
2017-09-19T09:52:16.163Z,21440
2017-09-19T09:53:19.532Z,22752
2017-09-19T09:54:21.955Z,23584
2017-09-19T09:55:25.757Z,24192
2017-09-19T10:01:32.894Z,25920
2017-09-19T10:02:39.826Z,26208
2017-09-19T10:03:41.978Z,26944
2017-09-19T10:04:44.867Z,27648
2017-09-19T10:05:49.539Z,28320
2017-09-19T10:06:53.445Z,29024
2017-09-19T10:07:55.144Z,29824
2017-09-19T10:08:59.261Z,30656
2017-09-19T10:10:01.761Z,31488
2017-09-19T10:11:05.236Z,30816
2017-09-19T10:12:07.447Z,30752
2017-09-19T10:13:12.195Z,31744
2017-09-19T10:14:13.573Z,35136
2017-09-19T10:15:16.431Z,36288
2017-09-19T10:16:19.404Z,37120
2017-09-19T10:17:25.009Z,37504
2017-09-19T10:18:27.695Z,38048
2017-09-19T10:19:31.848Z,38784
2017-09-19T10:20:36.745Z,42336
2017-09-19T10:21:40.703Z,40544
2017-09-19T10:22:42.284Z,41600
2017-09-19T10:23:46.333Z,41600
2017-09-19T10:24:49.346Z,44640
2017-09-19T10:25:53.321Z,49024
2017-09-19T10:26:56.475Z,60896
2017-09-19T10:27:58.166Z,47584
2017-09-19T10:29:00.704Z,43648
2017-09-19T10:30:02.620Z,43776
2017-09-19T10:31:04.289Z,39616
2017-09-19T10:32:08.198Z,45216
2017-09-19T10:33:09.906Z,45312
2017-09-19T10:34:15.795Z,47168
2017-09-19T10:35:17.480Z,40128
2017-09-19T10:36:19.901Z,47648
2017-09-19T10:37:23.450Z,78496
2017-09-19T10:38:25.297Z,34656
2017-09-19T10:39:27.767Z,31136
2017-09-19T10:40:29.477Z,30432
2017-09-19T10:41:32.947Z,29664
2017-09-19T10:42:36.978Z,28256
2017-09-19T10:43:39.196Z,27232
2017-09-19T10:44:42.773Z,26816
2017-09-19T10:45:46.880Z,26496
2017-09-19T10:46:48.588Z,26272
2017-09-19T10:47:50.259Z,26336
2017-09-19T10:48:52.770Z,26432
2017-09-19T10:49:55.976Z,26912
2017-09-19T10:50:57.666Z,28704
2017-09-19T10:51:59.335Z,37248
2017-09-19T10:53:02.930Z,127872
2017-09-19T10:54:04.594Z,27680
2017-09-19T10:55:08.279Z,28640
2017-09-19T10:56:09.956Z,32864
2017-09-19T10:57:12.293Z,37920
2017-09-19T10:58:13.978Z,42240
2017-09-19T10:59:16.261Z,41344
2017-09-19T11:00:19.704Z,40032
2017-09-19T11:01:21.413Z,38880
2017-09-19T11:02:24.947Z,38144
2017-09-19T11:03:28.218Z,38368
2017-09-19T11:04:31.376Z,38944
2017-09-19T11:05:35.246Z,39616
2017-09-19T11:06:38.319Z,40608
2017-09-19T11:07:40.677Z,41024
2017-09-19T11:08:43.276Z,40384
2017-09-19T11:09:49.939Z,40608
2017-09-19T11:10:52.296Z,42144
2017-09-19T11:11:58.172Z,44032
2017-09-19T11:13:01.407Z,47808
2017-09-19T11:14:04.764Z,48608
2017-09-19T11:15:08.396Z,51328
2017-09-19T11:16:10.060Z,55680
2017-09-19T11:17:14.072Z,85088
2017-09-19T11:18:17.327Z,60608
2017-09-19T11:19:19.650Z,55584
2017-09-19T11:20:21.802Z,50432
2017-09-19T11:21:26.210Z,49440
2017-09-19T11:22:28.262Z,44736
2017-09-19T11:23:31.430Z,49856
2017-09-19T11:24:35.709Z,45088
2017-09-19T11:25:39.793Z,37536
2017-09-19T11:26:43.335Z,36064
2017-09-19T11:27:45.870Z,33856
2017-09-19T11:28:51.295Z,30880
2017-09-19T11:29:52.999Z,49376
2017-09-19T11:30:56.431Z,49504
2017-09-19T11:31:58.944Z,49504
2017-09-19T11:33:01.968Z,52832
2017-09-19T11:34:06.048Z,52960
2017-09-19T11:35:08.321Z,57760
2017-09-19T11:36:12.331Z,41024
2017-09-19T11:37:15.420Z,33216
2017-09-19T11:38:17.993Z,29728
2017-09-19T11:39:20.260Z,27520
2017-09-19T11:40:25.846Z,27040
2017-09-19T11:41:29.262Z,24864
2017-09-19T11:42:35.014Z,22176
2017-09-19T11:43:40.517Z,20832
2017-09-19T11:44:45.645Z,20288
2017-09-19T11:45:48.261Z,19936
2017-09-19T11:46:50.772Z,19328
2017-09-19T11:47:53.770Z,18336
2017-09-19T11:48:56.814Z,17064
2017-09-19T11:50:00.368Z,16168
2017-09-19T11:51:05.377Z,15520
2017-09-19T11:52:09.340Z,15392
2017-09-19T11:53:12.716Z,15624
2017-09-19T11:54:14.305Z,15968
2017-09-19T11:55:19.126Z,16320
2017-09-19T11:56:21.380Z,16600
2017-09-19T11:57:24.827Z,16864
2017-09-19T11:58:27.893Z,17376
2017-09-19T11:59:32.925Z,17984
2017-09-19T12:00:37.220Z,19040
2017-09-19T12:01:39.497Z,20800
2017-09-19T12:02:41.222Z,23040
2017-09-19T12:03:43.670Z,25440
2017-09-19T12:04:48.789Z,28448
2017-09-19T12:05:51.512Z,32928
2017-09-19T12:06:55.752Z,37408
2017-09-19T12:07:58.348Z,41184
2017-09-19T12:09:00.586Z,44640
2017-09-19T12:10:02.910Z,50688
2017-09-19T12:11:06.218Z,47904
2017-09-19T12:12:07.995Z,53472
2017-09-19T12:13:11.222Z,55424
2017-09-19T12:14:13.307Z,52960
2017-09-19T12:15:15.097Z,55488
2017-09-19T12:16:19.340Z,47616
2017-09-19T12:17:21.820Z,41056
2017-09-19T12:18:24.111Z,39168
2017-09-19T12:19:27.966Z,38016
2017-09-19T12:20:30.443Z,40224
2017-09-19T12:21:32.888Z,81184
2017-09-19T12:22:36.228Z,116992
2017-09-19T12:23:38.759Z,142592
2017-09-19T12:24:41.627Z,149248
2017-09-19T12:25:44.072Z,147072
2017-09-19T12:26:47.019Z,148032
2017-09-19T12:27:49.568Z,151072
2017-09-19T12:28:52.596Z,152032
2017-09-19T12:29:55.149Z,151808
2017-09-19T12:30:58.082Z,144128
2017-09-19T12:31:59.753Z,130912
2017-09-19T12:33:01.451Z,140384
2017-09-19T12:34:06.337Z,138880
2017-09-19T12:35:09.793Z,145728
2017-09-19T12:36:13.224Z,149792
2017-09-19T12:37:17.284Z,144384
2017-09-19T12:38:21.125Z,140480
2017-09-19T12:39:23.504Z,100256
2017-09-19T12:40:26.728Z,65568
2017-09-19T12:41:28.465Z,96480
2017-09-19T12:42:32.435Z,97280
2017-09-19T12:43:35.856Z,30720
2017-09-19T12:44:38.382Z,25248
2017-09-19T12:45:42.625Z,28608
2017-09-19T12:46:46.007Z,28128
2017-09-19T12:47:48.451Z,32320
2017-09-19T12:48:50.129Z,30240
2017-09-19T12:49:52.953Z,27552
2017-09-19T12:50:55.502Z,26176
2017-09-19T12:51:59.779Z,26368
2017-09-19T12:53:01.470Z,26592
2017-09-19T12:54:04.962Z,26144
2017-09-19T12:55:06.675Z,25312
2017-09-19T12:56:10.066Z,23200
2017-09-19T12:57:13.543Z,20832
2017-09-19T12:58:16.473Z,18880
2017-09-19T12:59:19.929Z,16660
2017-09-19T13:00:22.332Z,14364
2017-09-19T13:01:24.738Z,11904
2017-09-19T13:02:27.405Z,9956
2017-09-19T13:03:30.789Z,8460
2017-09-19T13:04:34.433Z,7436
2017-09-19T13:05:38.236Z,6708
2017-09-19T13:06:41.386Z,6472
2017-09-19T13:07:43.735Z,6524
2017-09-19T13:08:46.080Z,6872
2017-09-19T13:09:48.779Z,7524
2017-09-19T13:10:51.421Z,8216
2017-09-19T13:11:53.735Z,8960
2017-09-19T13:12:55.720Z,9584
2017-09-19T13:13:58.353Z,10496
2017-09-19T13:15:00.924Z,11824
2017-09-19T13:16:02.597Z,13660
2017-09-19T13:17:07.592Z,15284
2017-09-19T13:18:10.145Z,16452
2017-09-19T13:19:12.802Z,17664
2017-09-19T13:20:15.891Z,18624
2017-09-19T13:21:18.872Z,20032
2017-09-19T13:22:22.259Z,21408
2017-09-19T13:24:39.375Z,22016
2017-09-19T13:25:45.845Z,22240
2017-09-19T13:26:48.278Z,22528
2017-09-19T13:27:50.170Z,22656
2017-09-19T13:28:55.736Z,22208
2017-09-19T13:29:57.038Z,21056
2017-09-19T13:31:01.363Z,20320
2017-09-19T13:32:06.438Z,20096
2017-09-19T13:33:09.488Z,20064
2017-09-19T13:34:12.477Z,20032
2017-09-19T13:35:14.169Z,19904
2017-09-19T13:36:17.346Z,19552
2017-09-19T13:37:20.451Z,19072
2017-09-19T13:38:23.792Z,18528
2017-09-19T13:39:26.391Z,18048
2017-09-19T13:40:28.831Z,17824
2017-09-19T13:41:31.028Z,18016
2017-09-19T13:42:33.924Z,18528
2017-09-19T13:43:36.568Z,19328
2017-09-19T13:44:39.802Z,19872
2017-09-19T13:45:42.358Z,20096
2017-09-19T13:46:44.544Z,19872
2017-09-19T13:47:46.920Z,19552
2017-09-19T13:48:51.053Z,19328
2017-09-19T13:49:53.392Z,19392
2017-09-19T13:50:55.064Z,19712
2017-09-19T13:51:57.105Z,20320
2017-09-19T13:53:01.251Z,20960
2017-09-19T13:54:03.803Z,21568
2017-09-19T13:55:07.316Z,22208
2017-09-19T14:01:04.236Z,24576
2017-09-19T14:02:06.582Z,25056
2017-09-19T14:03:09.025Z,25088
2017-09-19T14:04:12.685Z,24736
2017-09-19T14:05:14.117Z,24096
2017-09-19T14:06:17.113Z,23520
2017-09-19T14:07:20.204Z,23200
2017-09-19T14:08:22.559Z,23168
2017-09-19T14:09:24.749Z,23136
2017-09-19T14:10:29.025Z,23136
2017-09-19T14:11:32.210Z,23136
2017-09-19T14:12:37.210Z,23200
2017-09-19T14:14:04.679Z,23424
2017-09-19T14:15:14.287Z,23712
2017-09-19T14:16:37.670Z,23456
2017-09-19T14:17:42.934Z,22144
2017-09-19T14:18:46.311Z,20832
2017-09-19T14:19:51.179Z,20032
2017-09-19T14:20:53.837Z,19456
2017-09-19T14:21:56.195Z,19392
2017-09-19T14:22:59.715Z,19360
2017-09-19T14:24:02.670Z,20000
2017-09-19T14:25:05.588Z,20992
2017-09-19T14:26:08.672Z,22208
2017-09-19T14:27:10.280Z,23296
2017-09-19T14:28:14.671Z,24032
2017-09-19T14:29:17.275Z,25024
2017-09-19T14:30:20.662Z,25376
2017-09-19T14:31:23.883Z,25248
2017-09-19T14:32:27.215Z,25152
2017-09-19T14:33:29.677Z,24832
2017-09-19T14:34:32.872Z,24384
2017-09-19T14:35:36.184Z,23648
2017-09-19T14:36:37.468Z,22624
2017-09-19T14:37:39.738Z,21664
2017-09-19T14:38:42.727Z,21280
2017-09-19T14:39:44.392Z,21472